Time;durP1;ratioP1;P1;durP2;ratioP2;P2;SDS_P1;SDS_P2;PMS_P1;PMS_P2;Temp;Humidity;BMP_temperature;BMP_pressure;BME280_temperature;BME280_humidity;BME280_pressure;Samples;Min_cycle;Max_cycle;Signal;HPM_P1;HPM_P2
2022/02/09 00:01:12;;;;;;;;;11.50;9.75;;;;;20.80;38.22;102606.91;5036751;28;51804;-46
2022/02/09 00:03:40;;;;;;;;;11.50;9.25;;;;;20.80;38.30;102606.06;5030625;28;51010;-46
2022/02/09 00:06:09;;;;;;;;;8.75;8.75;;;;;20.79;38.26;102604.34;5036354;28;50939;-51
2022/02/09 00:08:34;;;;;;;;;12.75;11.25;;;;;20.77;38.33;102601.78;5036269;28;51118;-48
2022/02/09 00:11:03;;;;;;;;;6.75;6.00;;;;;20.75;38.38;102601.09;5036150;28;52194;-48
2022/02/09 00:19:04;;;;;;;;;12.25;9.75;;;;;20.71;38.04;102592.34;5036185;28;51046;-48
2022/02/09 00:21:47;;;;;;;;;8.25;8.25;;;;;20.70;38.22;102581.50;5035571;28;51837;-46
2022/02/09 00:34:47;;;;;;;;;12.25;11.00;;;;;20.62;38.26;102582.41;5035770;28;50970;-51
2022/02/09 01:55:49;;;;;;;;;8.00;7.00;;;;;20.29;38.37;102562.44;5034598;28;51010;-49
2022/02/09 01:58:15;;;;;;;;;8.50;8.00;;;;;20.28;38.44;102552.47;5034777;28;52759;-47
2022/02/09 02:00:40;;;;;;;;;6.75;6.00;;;;;20.29;38.39;102558.81;5035038;28;51004;-48
2022/02/09 02:03:06;;;;;;;;;7.75;6.50;;;;;20.28;38.37;102559.88;5034965;28;51080;-46
2022/02/09 02:05:33;;;;;;;;;7.00;5.25;;;;;20.26;38.09;102557.31;5035426;28;51098;-45
2022/02/09 02:08:01;;;;;;;;;6.75;6.75;;;;;20.25;38.48;102555.59;5035161;28;51835;-48
2022/02/09 02:18:25;;;;;;;;;6.50;6.50;;;;;20.23;38.17;102538.41;5034549;28;51490;-48
2022/02/09 02:26:56;;;;;;;;;6.00;6.00;;;;;20.21;38.27;102534.09;5034025;28;51083;-46
2022/02/09 03:09:46;;;;;;;;;6.25;6.25;;;;;20.09;38.40;102481.38;5037577;28;50998;-45
2022/02/09 03:14:11;;;;;;;;;7.00;7.00;;;;;20.07;38.61;102473.31;5037165;28;51128;-46
2022/02/09 03:16:42;;;;;;;;;4.75;3.50;;;;;20.06;38.33;102468.00;5037764;28;51320;-44
2022/02/09 03:24:11;;;;;;;;;6.25;5.50;;;;;20.05;38.67;102452.53;5036062;28;51649;-45
2022/02/09 03:27:00;;;;;;;;;6.00;5.50;;;;;20.03;38.57;102449.94;5037346;28;51081;-47
2022/02/09 03:49:05;;;;;;;;;5.50;5.50;;;;;19.99;38.24;102420.22;5033092;28;51034;-46
2022/02/09 03:56:53;;;;;;;;;7.50;7.00;;;;;19.97;38.16;102414.06;5036889;28;51130;-44
2022/02/09 03:59:16;;;;;;;;;7.75;5.00;;;;;19.96;38.38;102417.84;5036582;28;52179;-46
2022/02/09 04:01:43;;;;;;;;;8.50;6.50;;;;;19.96;38.66;102421.44;5036916;28;51195;-43
2022/02/09 04:04:09;;;;;;;;;6.00;6.00;;;;;19.94;38.66;102415.28;5035882;28;51202;-45
2022/02/09 04:06:36;;;;;;;;;6.25;6.25;;;;;19.94;38.43;102407.03;5037128;28;51033;-45
2022/02/09 04:09:06;;;;;;;;;8.50;3.75;;;;;19.94;38.16;102412.53;5036247;28;51222;-44
2022/02/09 04:16:52;;;;;;;;;7.25;7.00;;;;;19.92;38.19;102402.75;5036493;28;51049;-48
2022/02/09 04:43:29;;;;;;;;;8.00;7.00;;;;;19.83;38.47;102393.69;5036572;28;51216;-47
2022/02/09 04:51:19;;;;;;;;;6.00;6.00;;;;;19.82;38.66;102402.97;5036564;28;51657;-49
2022/02/09 05:23:39;;;;;;;;;6.75;6.75;;;;;19.74;38.28;102412.13;5035884;28;51180;-48
2022/02/09 05:28:43;;;;;;;;;7.75;7.25;;;;;19.72;38.09;102424.34;5035047;28;51210;-48
2022/02/09 05:31:09;;;;;;;;;7.25;6.00;;;;;19.71;38.18;102419.88;5035567;28;50960;-48
2022/02/09 05:33:35;;;;;;;;;7.75;7.75;;;;;19.72;38.24;102418.84;5035931;28;51038;-47
2022/02/09 05:36:01;;;;;;;;;5.50;5.50;;;;;19.71;38.08;102418.00;5035774;28;51065;-46
2022/02/09 05:38:26;;;;;;;;;9.00;7.25;;;;;19.70;38.16;102419.03;5035312;28;51180;-48
2022/02/09 05:40:52;;;;;;;;;9.25;6.00;;;;;19.69;38.41;102420.03;5035120;28;51094;-48
2022/02/09 05:43:17;;;;;;;;;6.75;4.25;;;;;19.70;38.04;102416.28;5035352;28;50998;-45
2022/02/09 05:53:24;;;;;;;;;6.00;6.00;;;;;19.67;37.97;102405.63;5035409;28;51106;-47
2022/02/09 05:55:53;;;;;;;;;6.75;6.50;;;;;19.68;38.07;102411.97;5034988;28;51095;-48
2022/02/09 05:58:34;;;;;;;;;8.25;8.25;;;;;19.65;38.05;102407.69;5035303;28;53121;-46
2022/02/09 06:01:00;;;;;;;;;6.00;4.25;;;;;19.64;38.36;102405.97;5034439;28;51090;-44
2022/02/09 06:03:26;;;;;;;;;8.00;7.00;;;;;19.64;38.06;102410.63;5035351;28;51172;-44
2022/02/09 06:05:52;;;;;;;;;7.00;6.25;;;;;19.63;37.97;102412.53;5035462;28;50998;-45
2022/02/09 06:08:17;;;;;;;;;7.75;6.25;;;;;19.63;38.08;102417.16;5034856;28;51764;-43
2022/02/09 06:10:50;;;;;;;;;6.00;5.25;;;;;19.64;38.05;102418.88;5034407;28;51049;-44
2022/02/09 06:13:46;;;;;;;;;9.00;6.75;;;;;19.62;38.28;102421.81;5034522;28;50958;-46
2022/02/09 06:19:41;;;;;;;;;8.00;6.75;;;;;19.62;38.12;102418.19;5035215;28;51140;-47
2022/02/09 06:21:41;;;;;;;;;9.25;7.50;;;;;19.61;38.37;102428.34;5034983;28;51420;-47
2022/02/09 06:24:06;;;;;;;;;6.75;6.00;;;;;19.60;38.26;102438.47;5035000;28;51137;-44
2022/02/09 06:26:32;;;;;;;;;11.75;9.25;;;;;19.60;38.02;102434.88;5034792;28;51029;-43
2022/02/09 06:28:57;;;;;;;;;13.00;12.00;;;;;19.59;37.61;102436.78;5034800;28;52082;-45
2022/02/09 06:31:22;;;;;;;;;15.00;14.00;;;;;19.57;37.09;102438.81;5031185;28;51199;-43
2022/02/09 06:33:48;;;;;;;;;17.00;13.25;;;;;19.56;36.82;102437.09;5033905;28;51721;-48
2022/02/09 06:36:15;;;;;;;;;17.50;15.00;;;;;19.53;36.43;102433.84;5033530;28;51412;-46
2022/02/09 06:38:40;;;;;;;;;14.75;11.75;;;;;19.49;36.50;102425.09;5031657;28;51953;-46
2022/02/09 06:41:07;;;;;;;;;19.00;15.25;;;;;19.47;36.23;102416.16;5035173;28;51460;-45
2022/02/09 06:43:33;;;;;;;;;14.75;11.75;;;;;19.49;36.43;102418.75;5029888;28;51105;-45
2022/02/09 06:45:59;;;;;;;;;15.25;12.25;;;;;19.55;36.57;102418.00;5019369;28;51019;-44
2022/02/09 06:48:25;;;;;;;;;13.00;9.50;;;;;19.62;36.53;102416.31;5035660;28;51705;-44
2022/02/09 06:50:55;;;;;;;;;13.75;10.00;;;;;19.70;36.43;102420.91;5018198;28;51283;-48
2022/02/09 06:55:58;;;;;;;;;8.25;6.75;;;;;19.86;37.22;102423.56;5022958;28;51229;-43
2022/02/09 07:01:00;;;;;;;;;10.50;8.25;;;;;20.03;36.79;102424.34;5033904;28;51350;-46
2022/02/09 07:03:25;;;;;;;;;8.25;8.25;;;;;20.10;36.70;102420.66;5035409;28;51142;-43
2022/02/09 07:05:50;;;;;;;;;7.75;7.00;;;;;20.18;36.73;102423.38;5034891;28;51375;-50
2022/02/09 07:08:16;;;;;;;;;9.75;8.75;;;;;20.26;36.96;102427.97;5035917;28;51204;-49
2022/02/09 07:10:42;;;;;;;;;7.00;7.00;;;;;20.33;37.13;102425.34;5035884;28;51238;-47
2022/02/09 07:13:08;;;;;;;;;8.75;8.25;;;;;20.42;37.11;102429.72;5035957;28;51019;-44
2022/02/09 07:15:39;;;;;;;;;7.75;7.25;;;;;20.49;36.90;102428.00;5038581;28;51053;-44
2022/02/09 07:18:09;;;;;;;;;7.00;7.00;;;;;20.58;37.06;102426.03;5036215;28;51974;-44
2022/02/09 07:20:52;;;;;;;;;8.00;8.00;;;;;20.67;37.04;102428.53;5018369;28;51122;-47
2022/02/09 07:23:35;;;;;;;;;9.25;6.00;;;;;20.76;37.11;102434.81;5027771;28;51620;-43
2022/02/09 07:26:12;;;;;;;;;9.00;7.00;;;;;20.85;36.96;102435.63;5033860;28;51393;-43
2022/02/09 07:28:38;;;;;;;;;5.75;5.00;;;;;20.91;36.55;102440.34;5034972;28;51111;-49
2022/02/09 07:31:07;;;;;;;;;8.25;8.25;;;;;20.97;37.17;102439.63;5034191;28;51133;-49
2022/02/09 07:33:33;;;;;;;;;6.50;5.25;;;;;21.00;37.35;102444.75;5035818;28;51216;-48
2022/02/09 07:35:59;;;;;;;;;8.00;7.50;;;;;21.00;36.96;102447.50;5031531;28;50984;-46
2022/02/09 07:38:24;;;;;;;;;7.00;7.00;;;;;21.00;37.41;102439.25;5035250;28;51010;-45
2022/02/09 07:40:52;;;;;;;;;8.25;7.75;;;;;20.98;37.11;102441.34;5029022;28;52271;-43
2022/02/09 07:43:23;;;;;;;;;7.25;7.25;;;;;20.97;37.27;102440.47;5034433;28;51271;-46
2022/02/09 07:56:17;;;;;;;;;10.75;7.75;;;;;20.95;37.51;102437.06;5031519;28;51349;-50
2022/02/09 07:58:43;;;;;;;;;9.00;9.00;;;;;20.95;37.46;102422.44;5033746;28;53417;-48
2022/02/09 08:01:08;;;;;;;;;10.50;10.50;;;;;20.92;37.26;102420.88;5036977;28;50958;-47
2022/02/09 08:03:35;;;;;;;;;9.00;8.75;;;;;20.91;37.23;102426.59;5037288;28;51627;-45
2022/02/09 08:06:01;;;;;;;;;7.00;7.00;;;;;20.90;37.25;102424.88;5037532;28;51141;-47
2022/02/09 08:08:30;;;;;;;;;10.50;8.00;;;;;20.88;36.93;102421.47;5037056;28;51910;-47
2022/02/09 08:10:59;;;;;;;;;9.00;7.25;;;;;20.88;37.18;102421.47;5036711;28;51041;-48
2022/02/09 08:27:35;;;;;;;;;12.25;9.25;;;;;20.82;36.48;102411.19;5030381;28;51552;-45
2022/02/09 08:30:19;;;;;;;;;7.25;6.50;;;;;20.81;36.91;102403.97;5027257;28;52842;-48
2022/02/09 08:32:54;;;;;;;;;10.75;8.75;;;;;20.82;37.07;102405.66;5027652;28;53054;-46
2022/02/09 08:35:20;;;;;;;;;10.25;8.00;;;;;20.82;36.83;102412.03;5029784;28;51169;-44
2022/02/09 08:37:45;;;;;;;;;10.00;8.50;;;;;20.82;36.88;102406.53;5027563;28;51211;-44
2022/02/09 08:40:14;;;;;;;;;7.00;7.00;;;;;20.83;36.52;102407.38;5032095;28;51775;-43
2022/02/09 08:42:39;;;;;;;;;8.00;8.00;;;;;20.83;36.74;102402.72;5030251;28;51419;-43
2022/02/09 08:45:07;;;;;;;;;12.50;9.75;;;;;20.83;37.08;102402.72;5030566;28;51116;-46
2022/02/09 08:47:32;;;;;;;;;8.75;8.75;;;;;20.84;36.65;102403.56;5033403;28;51466;-48
2022/02/09 08:49:58;;;;;;;;;11.50;11.00;;;;;20.82;36.74;102401.00;5032559;28;51859;-46
2022/02/09 08:52:23;;;;;;;;;10.00;9.25;;;;;20.83;37.07;102397.22;5028266;28;51056;-43
2022/02/09 08:54:50;;;;;;;;;10.50;9.00;;;;;20.84;36.78;102398.94;5028002;28;51165;-45
2022/02/09 08:57:16;;;;;;;;;7.50;7.50;;;;;20.85;36.73;102400.66;5031721;28;51580;-45
2022/02/09 08:59:41;;;;;;;;;11.50;9.50;;;;;20.84;37.02;102400.81;5031218;28;51765;-46
2022/02/09 09:02:11;;;;;;;;;9.50;8.00;;;;;20.84;37.06;102392.56;5030016;28;51540;-46
2022/02/09 09:04:51;;;;;;;;;10.50;9.75;;;;;20.84;36.98;102390.69;5032135;28;51943;-48
2022/02/09 09:07:23;;;;;;;;;10.50;8.50;;;;;20.85;37.02;102386.88;5032285;28;51311;-48
2022/02/09 09:10:05;;;;;;;;;10.75;8.50;;;;;20.86;36.80;102385.00;5018176;28;52016;-48
2022/02/09 10:35:20;;;;;;;;;12.00;10.00;;;;;21.41;36.22;102356.13;5029754;28;51113;-43
2022/02/09 10:37:45;;;;;;;;;9.50;9.50;;;;;21.44;35.88;102351.06;5031529;28;52164;-44
2022/02/09 10:40:33;;;;;;;;;11.75;11.25;;;;;21.48;36.05;102346.06;5033966;28;51101;-43
2022/02/09 10:43:01;;;;;;;;;10.25;9.50;;;;;21.51;36.05;102341.00;5032399;28;51675;-45
2022/02/09 10:45:44;;;;;;;;;10.50;10.50;;;;;21.54;36.41;102339.75;5031976;28;51140;-45
2022/02/09 10:48:32;;;;;;;;;12.00;10.00;;;;;21.58;35.84;102341.09;5030350;28;52596;-43
2022/02/09 10:51:45;;;;;;;;;11.50;8.50;;;;;21.60;36.14;102337.06;5029016;28;51382;-43
2022/02/09 10:54:23;;;;;;;;;11.50;10.50;;;;;21.63;35.92;102333.06;5027417;28;51122;-47
2022/02/09 10:56:55;;;;;;;;;11.00;10.25;;;;;21.64;35.60;102329.25;5028250;28;51441;-43
2022/02/09 10:59:23;;;;;;;;;9.00;8.75;;;;;21.67;35.63;102323.34;5029306;28;51816;-44
2022/02/09 11:01:50;;;;;;;;;11.50;9.75;;;;;21.69;35.52;102326.78;5029736;28;51157;-45
2022/02/09 11:04:16;;;;;;;;;10.75;10.75;;;;;21.72;36.05;102320.03;5031542;28;51993;-44
2022/02/09 11:06:43;;;;;;;;;14.00;12.25;;;;;21.72;35.54;102315.34;5032127;28;51615;-44
2022/02/09 11:09:13;;;;;;;;;13.75;10.25;;;;;21.76;35.88;102313.06;5028983;28;51224;-43
2022/02/09 11:11:41;;;;;;;;;10.50;9.00;;;;;21.78;35.22;102308.19;5033516;28;51284;-50
2022/02/09 11:14:14;;;;;;;;;11.25;10.00;;;;;21.79;35.78;102305.25;5029107;28;51261;-48
2022/02/09 11:16:47;;;;;;;;;11.50;10.50;;;;;21.81;35.80;102311.44;5023897;28;51407;-45
2022/02/09 11:19:15;;;;;;;;;9.00;9.00;;;;;21.83;35.21;102309.31;5030555;28;51704;-46
2022/02/09 11:21:43;;;;;;;;;10.75;10.00;;;;;21.83;35.62;102301.03;5033876;28;51228;-47
2022/02/09 11:24:19;;;;;;;;;13.75;10.00;;;;;21.85;35.39;102293.41;5017749;28;51311;-45
2022/02/09 11:26:59;;;;;;;;;9.00;8.25;;;;;21.86;35.36;102292.38;5037872;28;51148;-46
2022/02/09 11:34:50;;;;;;;;;13.50;11.25;;;;;21.86;35.21;102284.09;5030266;28;51658;-47
2022/02/09 11:37:27;;;;;;;;;21.25;20.25;;;;;21.88;35.21;102284.78;5028809;28;51324;-46
2022/02/09 11:39:56;;;;;;;;;25.00;19.50;;;;;21.89;35.27;102274.59;5032185;28;52214;-48
2022/02/09 11:42:52;;;;;;;;;20.25;18.00;;;;;21.91;35.32;102269.72;5032692;28;51199;-46
2022/02/09 11:45:42;;;;;;;;;20.50;18.75;;;;;21.94;34.90;102269.31;5034006;28;51620;-49
2022/02/09 11:51:31;;;;;;;;;19.00;16.25;;;;;21.97;35.32;102266.16;4986949;28;51883;-45
2022/02/09 11:59:52;;;;;;;;;18.50;16.25;;;;;22.02;35.27;102262.81;5033585;28;51307;-44
2022/02/09 12:11:33;;;;;;;;;14.75;13.00;;;;;22.06;34.74;102253.97;5035352;28;51275;-45
2022/02/09 12:19:04;;;;;;;;;12.75;12.00;;;;;22.08;34.48;102246.34;5036405;28;51268;-46
2022/02/09 12:22:04;;;;;;;;;12.75;12.75;;;;;22.10;34.50;102235.97;5028348;28;51458;-46
2022/02/09 12:24:35;;;;;;;;;15.25;13.00;;;;;22.10;34.96;102244.25;5033432;28;52056;-48
2022/02/09 12:27:05;;;;;;;;;12.75;12.50;;;;;22.10;34.66;102233.22;5024989;28;51955;-45
2022/02/09 12:29:34;;;;;;;;;9.25;7.50;;;;;22.10;34.62;102224.09;5032603;28;51351;-45
2022/02/09 12:32:22;;;;;;;;;12.00;11.25;;;;;22.09;34.44;102234.28;5034538;28;51394;-47
2022/02/09 12:35:10;;;;;;;;;12.25;10.00;;;;;22.09;34.73;102228.75;5035259;28;52813;-47
2022/02/09 12:37:38;;;;;;;;;13.00;11.00;;;;;22.10;34.40;102224.09;5036150;28;51063;-43
2022/02/09 12:40:12;;;;;;;;;11.00;10.25;;;;;22.09;34.37;102220.47;5036092;28;51097;-46
2022/02/09 12:42:45;;;;;;;;;11.50;11.50;;;;;22.08;34.16;102210.47;5036218;28;51159;-44
2022/02/09 12:45:14;;;;;;;;;9.75;8.75;;;;;22.08;34.31;102213.22;5035703;28;52037;-44
2022/02/09 12:47:50;;;;;;;;;11.00;10.50;;;;;22.08;34.15;102210.47;5035480;28;51205;-47
2022/02/09 12:50:20;;;;;;;;;12.75;11.50;;;;;22.08;34.55;102201.31;5035983;28;51297;-47
2022/02/09 12:52:46;;;;;;;;;11.00;10.50;;;;;22.08;34.18;102202.19;5035701;28;51286;-47
2022/02/09 12:55:15;;;;;;;;;9.50;9.00;;;;;22.07;34.59;102203.22;5035402;28;51965;-48
2022/02/09 12:57:52;;;;;;;;;12.25;7.75;;;;;22.06;34.10;102196.00;5035807;28;51077;-48
2022/02/09 13:00:25;;;;;;;;;11.00;8.75;;;;;22.06;34.51;102198.78;5034195;28;51005;-49
2022/02/09 13:02:52;;;;;;;;;10.75;10.50;;;;;22.05;34.73;102193.44;5035783;28;51090;-47
2022/02/09 13:05:18;;;;;;;;;10.25;8.75;;;;;22.05;34.40;102187.91;5035441;28;51508;-43
2022/02/09 13:07:57;;;;;;;;;13.50;13.00;;;;;22.05;34.55;102191.53;5036363;28;51199;-50
2022/02/09 13:10:24;;;;;;;;;11.00;10.00;;;;;22.05;34.52;102187.91;5035917;28;51007;-43
2022/02/09 13:12:49;;;;;;;;;12.00;9.00;;;;;22.04;34.26;102183.44;5035942;28;50937;-47
2022/02/09 13:15:28;;;;;;;;;10.00;9.25;;;;;22.04;34.22;102177.94;5035865;28;52671;-44
2022/02/09 14:11:41;;;;;;;;;11.25;10.00;;;;;22.82;33.72;102129.75;5032198;28;51927;-45
2022/02/09 14:33:40;;;;;;;;;6.00;5.00;;;;;22.93;33.80;102098.81;5031370;28;51217;-44
2022/02/09 14:56:57;;;;;;;;;9.50;8.50;;;;;22.88;33.55;102095.81;5035140;28;51140;-47
2022/02/09 14:59:43;;;;;;;;;7.50;7.25;;;;;22.86;33.58;102086.88;5035661;28;51169;-51
2022/02/09 15:02:15;;;;;;;;;8.50;7.75;;;;;22.84;33.71;102079.88;5034694;28;51018;-45
2022/02/09 15:22:41;;;;;;;;;8.00;7.25;;;;;23.01;33.92;102068.19;5034472;28;51070;-49
2022/02/09 15:25:15;;;;;;;;;9.00;7.00;;;;;23.04;33.90;102059.50;5031234;28;52052;-43
2022/02/09 15:27:41;;;;;;;;;7.25;6.25;;;;;23.03;33.76;102062.44;5032171;28;51231;-47
2022/02/09 15:30:07;;;;;;;;;8.50;7.75;;;;;23.03;33.46;102059.69;5036075;28;51264;-45
2022/02/09 15:32:40;;;;;;;;;8.00;7.00;;;;;23.01;33.46;102056.28;5032393;28;51105;-43
2022/02/09 15:37:59;;;;;;;;;9.00;7.75;;;;;22.97;33.47;102055.88;5034000;28;51361;-43
2022/02/09 15:40:50;;;;;;;;;9.00;8.00;;;;;22.94;33.70;102050.78;5035312;28;51026;-44
2022/02/09 16:09:49;;;;;;;;;7.75;7.00;;;;;22.95;33.81;102022.06;5027844;28;51623;-45
2022/02/09 16:25:51;;;;;;;;;8.00;8.00;;;;;22.84;33.97;102017.16;5029175;28;51242;-50
2022/02/09 16:44:41;;;;;;;;;8.00;7.00;;;;;22.90;33.44;102009.94;5034142;28;51190;-46
2022/02/09 16:47:52;;;;;;;;;5.75;5.25;;;;;22.89;33.76;102011.00;5035802;28;51464;-47
2022/02/09 16:50:11;;;;;;;;;8.00;8.00;;;;;22.87;33.39;102008.44;5026652;28;52335;-51
2022/02/09 16:52:49;;;;;;;;;8.75;8.25;;;;;22.86;33.41;102011.44;5027763;28;51787;-50
2022/02/09 17:19:52;;;;;;;;;9.00;8.00;;;;;22.83;33.68;101987.81;5030989;28;51164;-44
2022/02/09 17:22:18;;;;;;;;;7.00;7.00;;;;;22.83;33.45;101992.50;5016691;28;52231;-44
2022/02/09 17:24:44;;;;;;;;;8.25;8.25;;;;;22.83;33.64;101985.06;5032412;28;51156;-43
2022/02/09 17:27:16;;;;;;;;;10.50;7.75;;;;;22.81;34.00;101978.00;5031913;28;51331;-48
2022/02/09 17:30:25;;;;;;;;;9.50;8.00;;;;;22.80;33.95;101988.22;5031809;28;51156;-44
2022/02/09 17:35:05;;;;;;;;;14.00;8.00;;;;;22.79;34.09;101993.94;5033635;28;50991;-46
2022/02/09 17:38:04;;;;;;;;;8.25;7.50;;;;;22.76;34.36;101990.56;5029184;28;51215;-52
2022/02/09 17:56:49;;;;;;;;;9.00;7.25;;;;;22.77;34.36;102000.53;5031514;28;50976;-47
2022/02/09 17:59:20;;;;;;;;;6.25;6.25;;;;;22.82;34.03;101997.13;5032321;28;51755;-49
2022/02/09 18:01:45;;;;;;;;;8.75;8.75;;;;;22.84;34.23;101985.94;5031003;28;51176;-47
2022/02/09 18:04:11;;;;;;;;;7.25;7.00;;;;;22.84;34.35;102000.59;5032010;28;51067;-47
2022/02/09 18:06:41;;;;;;;;;8.00;7.00;;;;;22.82;33.94;101994.38;5026402;28;51150;-49
2022/02/09 18:09:12;;;;;;;;;8.50;8.25;;;;;22.82;34.03;102001.81;5026577;28;51382;-48
2022/02/09 18:31:08;;;;;;;;;9.25;8.00;;;;;22.76;35.82;101995.22;5036078;28;51350;-44
2022/02/09 18:43:46;;;;;;;;;9.00;7.25;;;;;22.82;35.04;101993.53;5028874;28;51105;-44
2022/02/09 18:49:02;;;;;;;;;8.75;8.00;;;;;22.76;35.50;101987.78;5033633;28;51810;-48
2022/02/09 19:04:38;;;;;;;;;11.00;9.50;;;;;22.63;35.33;101967.59;5031748;28;51621;-46
2022/02/09 19:30:55;;;;;;;;;13.00;11.25;;;;;22.71;35.40;101937.00;5033010;28;51135;-47
2022/02/09 19:52:01;;;;;;;;;12.00;11.00;;;;;22.58;35.56;101936.97;5025010;28;52613;-47
2022/02/09 19:57:00;;;;;;;;;9.25;8.75;;;;;22.56;35.49;101926.16;5028607;28;51116;-47
2022/02/09 19:59:25;;;;;;;;;19.00;15.75;;;;;22.60;35.25;101934.84;5027277;28;51205;-48
2022/02/09 20:01:53;;;;;;;;;11.75;9.50;;;;;22.64;34.95;101925.94;5009636;28;51307;-46
2022/02/09 20:04:19;;;;;;;;;10.75;8.25;;;;;22.68;35.16;101915.31;5033028;28;51233;-50
2022/02/09 20:06:45;;;;;;;;;11.00;10.75;;;;;22.69;35.34;101926.16;5031972;28;51324;-50
2022/02/09 20:09:10;;;;;;;;;11.75;10.00;;;;;22.69;35.54;101914.25;5032170;28;51231;-50
2022/02/09 20:11:38;;;;;;;;;10.00;9.75;;;;;22.69;35.67;101926.16;5031741;28;51212;-46
2022/02/09 20:14:04;;;;;;;;;9.75;9.75;;;;;22.69;35.75;101922.53;5028394;28;51566;-44
2022/02/09 20:16:30;;;;;;;;;11.75;10.25;;;;;22.67;35.52;101922.75;5032322;28;51405;-46
2022/02/09 20:18:56;;;;;;;;;12.00;10.50;;;;;22.67;35.72;101920.00;5030443;28;51731;-43
2022/02/09 20:21:23;;;;;;;;;10.00;9.00;;;;;22.66;35.58;101917.44;5029843;28;51734;-48
2022/02/09 20:23:51;;;;;;;;;12.75;10.25;;;;;22.64;35.50;101905.78;5026726;28;51480;-45
2022/02/09 20:26:17;;;;;;;;;10.75;8.50;;;;;22.63;35.49;101909.59;5012969;28;51127;-42
2022/02/09 20:28:50;;;;;;;;;11.00;10.00;;;;;22.62;35.85;101917.03;5030655;28;52000;-47
2022/02/09 20:31:20;;;;;;;;;9.50;5.00;;;;;22.62;35.87;101917.03;5026002;28;51394;-44
2022/02/09 20:33:51;;;;;;;;;9.50;9.50;;;;;22.61;35.56;101917.22;5032293;28;52352;-43
2022/02/09 20:36:18;;;;;;;;;12.50;11.00;;;;;22.61;35.80;101917.22;5030961;28;51366;-43
2022/02/09 20:38:47;;;;;;;;;11.00;10.50;;;;;22.61;35.53;101917.22;5032605;28;51197;-46
2022/02/09 20:41:13;;;;;;;;;10.00;9.50;;;;;22.60;35.83;101921.03;5028980;28;51456;-50
2022/02/09 20:43:45;;;;;;;;;12.75;11.25;;;;;22.60;35.75;101915.53;5031147;28;51303;-44
2022/02/09 20:46:10;;;;;;;;;10.00;9.25;;;;;22.59;35.28;101917.44;5028129;28;51328;-48
2022/02/09 20:48:36;;;;;;;;;13.00;12.50;;;;;22.59;35.94;101911.06;5016781;28;52810;-44
2022/02/09 20:51:02;;;;;;;;;12.00;12.00;;;;;22.58;35.46;101920.41;5017880;28;51308;-42
2022/02/09 20:53:29;;;;;;;;;10.75;10.75;;;;;22.57;35.28;101914.03;5018824;28;51592;-41
2022/02/09 20:55:56;;;;;;;;;13.25;12.50;;;;;22.55;34.91;101916.16;5017485;28;52096;-42
2022/02/09 20:58:23;;;;;;;;;14.50;10.75;;;;;22.55;35.36;101916.16;5018176;28;51861;-43
2022/02/09 21:08:17;;;;;;;;;11.50;9.25;;;;;22.51;35.99;101914.91;5016659;28;51964;-42
2022/02/09 21:11:04;;;;;;;;;11.75;11.00;;;;;22.50;35.91;101913.16;5020774;28;52072;-46
2022/02/09 21:14:17;;;;;;;;;15.00;13.00;;;;;22.49;35.47;101919.75;5018140;28;51737;-48
2022/02/09 21:16:38;;;;;;;;;16.75;12.75;;;;;22.48;35.94;101916.16;5003516;28;52229;-42
2022/02/09 21:24:55;;;;;;;;;12.00;11.50;;;;;22.47;35.45;101911.69;5019146;28;51212;-44
2022/02/09 21:53:45;;;;;;;;;15.25;13.00;;;;;22.39;36.03;101914.63;5021606;28;53064;-48
2022/02/09 21:56:23;;;;;;;;;12.00;10.50;;;;;22.39;35.84;101916.56;5030299;28;51136;-44
2022/02/09 21:59:44;;;;;;;;;17.00;14.75;;;;;22.38;36.12;101918.47;5021145;28;51281;-44
2022/02/09 22:01:54;;;;;;;;;13.50;11.25;;;;;22.37;36.15;101918.69;5020167;28;51214;-47
2022/02/09 22:28:18;;;;;;;;;15.00;13.25;;;;;22.24;35.47;101902.09;5031253;28;51325;-44
2022/02/09 22:34:29;;;;;;;;;16.25;13.75;;;;;22.21;35.64;101905.28;5030655;28;51038;-48
2022/02/09 22:45:37;;;;;;;;;15.25;12.75;;;;;22.15;35.49;101884.88;5029388;28;51100;-45
2022/02/09 22:50:09;;;;;;;;;13.25;12.00;;;;;22.12;35.45;101877.88;5027655;28;51282;-48
2022/02/09 22:55:25;;;;;;;;;16.50;13.25;;;;;22.10;35.24;101870.88;5033877;28;51849;-50
2022/02/09 23:03:20;;;;;;;;;14.75;13.50;;;;;22.01;35.54;101872.94;5034182;28;50971;-45
2022/02/09 23:05:59;;;;;;;;;15.00;14.50;;;;;21.99;35.25;101868.66;5033710;28;51870;-47
2022/02/09 23:11:22;;;;;;;;;16.50;16.50;;;;;21.91;35.48;101869.72;5033954;28;51263;-52
2022/02/09 23:14:00;;;;;;;;;19.00;17.00;;;;;21.87;34.97;101866.50;5033492;28;51337;-48
2022/02/09 23:25:15;;;;;;;;;18.00;14.50;;;;;21.73;35.12;101875.78;5014241;28;51136;-48
